Ebro, Minnesota
Current Conditions -  °F | °C
As of 6:55 PM on Saturday 22 Nov 2014 (Local Time) from KFSE Reporting Station
Clear Clear  
Wind Chill: 32°   Ceiling: Unl
Heat Index: 37°   Visibility: 10mi
Dew Point: 28°   Wind: 7mph
Humidity: 70%   Direction: 110°ESE
Pressure: 29.44"   Gusts: NA
Location:  47.3892°N, 95.4294°W
Report Text: KFSE 230055Z AUTO 11006KT 10SM CLR 03/M02 A2944 RMK AO2
Loading
Personal Weather Stations






























Interactive Weather Map New forecast layout! Learn more

10-Day Weather Forecast

Advertisements
Track Severe Weather on mobile